首页
METAR-TAF:

METAR-TAF

机场 :

盖达尔·阿利耶夫国际机场

巴库, 阿塞拜疆

纬度: 40-27N, 经度: 050-04E, 海拔: -6米

当前天气观测

该预报发布于17分钟前的11:00 UTC
风速6节,风向
温度 11°C
湿度 54%
气压 1017 hPa
能见度10公里或以上
散云层高于3200英尺

METAR: UBBB 051100Z 35006KT 9999 SCT032 11/02 Q1017 NOSIG

时间: 15:17 (11:17 UTC)

预报

该预报发布于6小时和20分钟前的04:57 UTC
预报有效从05日的 06点(UTC)到 06日的 06点(UTC)
风速6节,风向西北
能见度10公里或以上
1500米以下无云,无积雨云
短暂存在
从 05日的 06点(UTC)到 05日的 12点(UTC)
风速4节,风向多变
散云层高于3000英尺
成为
从 05日的 12点(UTC)到 05日的 14点(UTC)
风速5节,风向南转南东
短暂存在
从 05日的 20点(UTC)到 06日的 06点(UTC)
风速10节,风向
能見度: 4000
散云层高于600英尺
轻雾,

TAF: UBBB 050457Z 0506/0606 31006KT CAVOK TX11/0510Z TN03/0602Z TEMPO 0506/0512 VRB04KT SCT030 BECMG 0512/0514 15005KT TEMPO 0520/0606 18010KT 4000 BR SCT006

超过4000个机场的气象观测和天气预报(METAR&TAF报告)。

可查询的气象台以黄色和红色小点在地图上表示。

将鼠标移到小点上方,可查看气象台名称。

然后点击查看天气观测和预报。

如需切换地图:点击带黑十字的绿色按钮放大地图;点击带横线的绿色按钮缩小地图;或者点击绿色箭头查看邻近地区的地图。


METAR-TAF: